Pigeon Point — 2DBR8 — position and weather

sailwx.info

Track history (hours):
 
Tides and Currents Weather Stations Pressure Air Temp Water Temp Dewpoint Dewpoint Depression Visibility Wind Speed Wind Dir Waves Ship Positions

Pigeon Point

Last reported at 2018-Jun-21 06:15 UTC. Time now 2018-Jun-24 01:44 UTC.
Position N 27°02' W 014°24'.

Length 186 m; draft 11.7 m.

Type: Ship. MMSI: 235077605.

Date/timePositionNaut miles runAvg speedWind from/ knotsBaromVisibWave heightAir tempDewpointWater temp
2018-Jun-21 06:15N 27°02' W 014°24'413.4
2018-Jun-21 05:56N 27°06' W 014°21'814.0
2018-Jun-21 05:24N 27°12' W 014°16'614.4
2018-Jun-21 04:59N 27°17' W 014°12'714.3
2018-Jun-21 04:30N 27°23' W 014°08'714.1
2018-Jun-21 03:58N 27°29' W 014°03'613.8
2018-Jun-21 03:31N 27°34' W 013°59'813.9
2018-Jun-21 02:55N 27°41' W 013°54'613.7
2018-Jun-21 02:29N 27°46' W 013°50'714.0
2018-Jun-21 02:00N 27°51' W 013°46'813.9
2018-Jun-21 01:24N 27°58' W 013°40'713.9
2018-Jun-21 00:54N 28°03' W 013°35'614.0
2018-Jun-21 00:31N 28°08' W 013°31'914.0
2018-Jun-20 23:52N 28°15' W 013°25'513.9
2018-Jun-20 23:30N 28°19' W 013°22'1113.6
2018-Jun-20 22:44N 28°28' W 013°15'313.4
2018-Jun-20 22:29N 28°31' W 013°13'813.6
2018-Jun-20 21:55N 28°37' W 013°08'914.0
2018-Jun-20 21:17N 28°44' W 013°03'1314.0
2018-Jun-20 20:22N 28°55' W 012°54'56813.1
2018-Jun-19 00:55N 36°00' W 005°29'4 9.3
2018-Jun-19 00:31N 36°01' W 005°24'3 5.8
2018-Jun-19 00:01N 36°03' W 005°21'2 4.9
2018-Jun-18 23:31N 36°04' W 005°19'3 5.5
2018-Jun-18 22:55N 36°07' W 005°16'2 4.9
2018-Jun-18 22:31N 36°07' W 005°13'18112.0
2018-Jun-18 07:30N 36°21' W 001°30'612.8
2018-Jun-18 07:00N 36°23' W 001°23'713.2
2018-Jun-18 06:30N 36°25' W 001°14'613.2
2018-Jun-18 06:01N 36°27' W 001°07'713.0
2018-Jun-18 05:29N 36°28' W 000°58'612.9
2018-Jun-18 05:01N 36°29' W 000°51'712.9
2018-Jun-18 04:30N 36°31' W 000°43'613.1
2018-Jun-18 04:00N 36°32' W 000°35'612.8
2018-Jun-18 03:30N 36°33' W 000°27'612.8
2018-Jun-18 03:00N 36°37' W 000°21'612.2
2018-Jun-18 02:30N 36°40' W 000°14'712.9
2018-Jun-18 02:00N 36°41' W 000°06'613.0
2018-Jun-18 01:30N 36°43' E 000°02'612.8
2018-Jun-18 01:00N 36°45' E 000°09'613.0
2018-Jun-18 00:31N 36°46' E 000°17'712.8
2018-Jun-17 23:57N 36°47' E 000°26'512.4
2018-Jun-17 23:30N 36°48' E 000°33'612.4
2018-Jun-17 23:00N 36°49' E 000°41'612.4
2018-Jun-17 22:30N 36°50' E 000°48'1112.3
2018-Jun-17 21:36N 36°53' E 001°02'112.3
2018-Jun-17 21:30N 36°53' E 001°03'612.3
2018-Jun-17 21:00N 36°55' E 001°11'612.3
2018-Jun-17 20:31N 36°56' E 001°18'612.3
2018-Jun-17 20:00N 36°58' E 001°25'712.1
2018-Jun-17 19:28N 37°00' E 001°33'612.2
2018-Jun-17 19:00N 37°01' E 001°40'612.2
2018-Jun-17 18:30N 37°03' E 001°48'612.3
2018-Jun-17 18:00N 37°05' E 001°55'612.3
2018-Jun-17 17:30N 37°05' E 002°02'612.4
2018-Jun-17 17:00N 37°07' E 002°10'612.3
2018-Jun-17 16:30N 37°09' E 002°17'612.0
2018-Jun-17 16:00N 37°11' E 002°24'612.0
2018-Jun-17 15:30N 37°13' E 002°31'2011.8
2018-Jun-17 13:48N 37°17' E 002°56'413.3
2018-Jun-17 13:29N 37°18' E 003°01'58512.0
2018-Jun-15 12:49N 35°49' E 015°02'  
2018-Jun-12 15:20N 35°54' E 014°52'0 0.0
2018-Jun-12 14:59N 35°54' E 014°52'0 0.0
2018-Jun-12 14:26N 35°54' E 014°52'0 0.0
2018-Jun-12 13:59N 35°54' E 014°52'0 0.0
2018-Jun-12 13:26N 35°54' E 014°52'0 0.0
2018-Jun-12 12:59N 35°54' E 014°52'0 0.0
2018-Jun-12 12:23N 35°54' E 014°52'0 0.0
2018-Jun-12 11:59N 35°54' E 014°52'0 0.0
2018-Jun-12 11:23N 35°54' E 014°52'0 0.0
2018-Jun-12 10:56N 35°54' E 014°52'0 0.0
2018-Jun-12 10:29N 35°54' E 014°52'0 0.0
2018-Jun-12 09:53N 35°54' E 014°52'0 0.0
2018-Jun-12 09:29N 35°54' E 014°52'0 0.0
2018-Jun-12 08:59N 35°54' E 014°52'0 0.0
2018-Jun-12 08:29N 35°54' E 014°52'0 0.0
2018-Jun-11 21:47N 35°55' E 014°52'0 0.1
2018-Jun-11 21:26N 35°55' E 014°52'0 0.0
2018-Jun-11 20:59N 35°55' E 014°52'0 0.0
2018-Jun-11 17:53N 35°54' E 014°52'0 0.1
2018-Jun-11 17:26N 35°54' E 014°52'0 0.0
2018-Jun-11 16:59N 35°54' E 014°52'0 0.0
2018-Jun-11 16:26N 35°54' E 014°52'0 0.0
2018-Jun-11 15:59N 35°54' E 014°52'0 0.0
2018-Jun-11 15:29N 35°54' E 014°52'0 0.0
2018-Jun-11 11:35N 35°54' E 014°52'0 0.2
2018-Jun-11 11:29N 35°54' E 014°52'0 0.1
2018-Jun-11 10:14N 35°54' E 014°53'0 0.1
2018-Jun-11 09:59N 35°54' E 014°53'0 0.0
2018-Jun-11 08:08N 35°54' E 014°53'0 0.0
2018-Jun-11 06:59N 35°54' E 014°53'0 0.0
2018-Jun-11 06:26N 35°54' E 014°53'  
Track history (hours):
 
Tides and Currents Weather Stations Pressure Air Temp Water Temp Dewpoint Dewpoint Depression Visibility Wind Speed Wind Dir Waves Ship Positions

Pigeon Point

Last reported at 2018-Jun-21 06:15 UTC. Time now 2018-Jun-24 01:44 UTC.
Position N 27°02' W 014°24'.

Length 186 m; draft 11.7 m.

Type: Ship. MMSI: 235077605.

Date/timePositionNaut miles runAvg speedWind from/ knotsBaromVisibWave heightAir tempDewpointWater temp
2018-Jun-21 06:15N 27°02' W 014°24'413.4
2018-Jun-21 05:56N 27°06' W 014°21'814.0
2018-Jun-21 05:24N 27°12' W 014°16'614.4
2018-Jun-21 04:59N 27°17' W 014°12'714.3
2018-Jun-21 04:30N 27°23' W 014°08'714.1
2018-Jun-21 03:58N 27°29' W 014°03'613.8
2018-Jun-21 03:31N 27°34' W 013°59'813.9
2018-Jun-21 02:55N 27°41' W 013°54'613.7
2018-Jun-21 02:29N 27°46' W 013°50'714.0
2018-Jun-21 02:00N 27°51' W 013°46'813.9
2018-Jun-21 01:24N 27°58' W 013°40'713.9
2018-Jun-21 00:54N 28°03' W 013°35'614.0
2018-Jun-21 00:31N 28°08' W 013°31'914.0
2018-Jun-20 23:52N 28°15' W 013°25'513.9
2018-Jun-20 23:30N 28°19' W 013°22'1113.6
2018-Jun-20 22:44N 28°28' W 013°15'313.4
2018-Jun-20 22:29N 28°31' W 013°13'813.6
2018-Jun-20 21:55N 28°37' W 013°08'914.0
2018-Jun-20 21:17N 28°44' W 013°03'1314.0
2018-Jun-20 20:22N 28°55' W 012°54'56813.1
2018-Jun-19 00:55N 36°00' W 005°29'4 9.3
2018-Jun-19 00:31N 36°01' W 005°24'3 5.8
2018-Jun-19 00:01N 36°03' W 005°21'2 4.9
2018-Jun-18 23:31N 36°04' W 005°19'3 5.5
2018-Jun-18 22:55N 36°07' W 005°16'2 4.9
2018-Jun-18 22:31N 36°07' W 005°13'18112.0
2018-Jun-18 07:30N 36°21' W 001°30'612.8
2018-Jun-18 07:00N 36°23' W 001°23'713.2
2018-Jun-18 06:30N 36°25' W 001°14'613.2
2018-Jun-18 06:01N 36°27' W 001°07'713.0
2018-Jun-18 05:29N 36°28' W 000°58'612.9
2018-Jun-18 05:01N 36°29' W 000°51'712.9
2018-Jun-18 04:30N 36°31' W 000°43'613.1
2018-Jun-18 04:00N 36°32' W 000°35'612.8
2018-Jun-18 03:30N 36°33' W 000°27'612.8
2018-Jun-18 03:00N 36°37' W 000°21'612.2
2018-Jun-18 02:30N 36°40' W 000°14'712.9
2018-Jun-18 02:00N 36°41' W 000°06'613.0
2018-Jun-18 01:30N 36°43' E 000°02'612.8
2018-Jun-18 01:00N 36°45' E 000°09'613.0
2018-Jun-18 00:31N 36°46' E 000°17'712.8
2018-Jun-17 23:57N 36°47' E 000°26'512.4
2018-Jun-17 23:30N 36°48' E 000°33'612.4
2018-Jun-17 23:00N 36°49' E 000°41'612.4
2018-Jun-17 22:30N 36°50' E 000°48'1112.3
2018-Jun-17 21:36N 36°53' E 001°02'112.3
2018-Jun-17 21:30N 36°53' E 001°03'612.3
2018-Jun-17 21:00N 36°55' E 001°11'612.3
2018-Jun-17 20:31N 36°56' E 001°18'612.3
2018-Jun-17 20:00N 36°58' E 001°25'712.1
2018-Jun-17 19:28N 37°00' E 001°33'612.2
2018-Jun-17 19:00N 37°01' E 001°40'612.2
2018-Jun-17 18:30N 37°03' E 001°48'612.3
2018-Jun-17 18:00N 37°05' E 001°55'612.3
2018-Jun-17 17:30N 37°05' E 002°02'612.4
2018-Jun-17 17:00N 37°07' E 002°10'612.3
2018-Jun-17 16:30N 37°09' E 002°17'612.0
2018-Jun-17 16:00N 37°11' E 002°24'612.0
2018-Jun-17 15:30N 37°13' E 002°31'2011.8
2018-Jun-17 13:48N 37°17' E 002°56'413.3
2018-Jun-17 13:29N 37°18' E 003°01'58512.0
2018-Jun-15 12:49N 35°49' E 015°02'  
2018-Jun-12 15:20N 35°54' E 014°52'0 0.0
2018-Jun-12 14:59N 35°54' E 014°52'0 0.0
2018-Jun-12 14:26N 35°54' E 014°52'0 0.0
2018-Jun-12 13:59N 35°54' E 014°52'0 0.0
2018-Jun-12 13:26N 35°54' E 014°52'0 0.0
2018-Jun-12 12:59N 35°54' E 014°52'0 0.0
2018-Jun-12 12:23N 35°54' E 014°52'0 0.0
2018-Jun-12 11:59N 35°54' E 014°52'0 0.0
2018-Jun-12 11:23N 35°54' E 014°52'0 0.0
2018-Jun-12 10:56N 35°54' E 014°52'0 0.0
2018-Jun-12 10:29N 35°54' E 014°52'0 0.0
2018-Jun-12 09:53N 35°54' E 014°52'0 0.0
2018-Jun-12 09:29N 35°54' E 014°52'0 0.0
2018-Jun-12 08:59N 35°54' E 014°52'0 0.0
2018-Jun-12 08:29N 35°54' E 014°52'0 0.0
2018-Jun-11 21:47N 35°55' E 014°52'0 0.1
2018-Jun-11 21:26N 35°55' E 014°52'0 0.0
2018-Jun-11 20:59N 35°55' E 014°52'0 0.0
2018-Jun-11 17:53N 35°54' E 014°52'0 0.1
2018-Jun-11 17:26N 35°54' E 014°52'0 0.0
2018-Jun-11 16:59N 35°54' E 014°52'0 0.0
2018-Jun-11 16:26N 35°54' E 014°52'0 0.0
2018-Jun-11 15:59N 35°54' E 014°52'0 0.0
2018-Jun-11 15:29N 35°54' E 014°52'0 0.0
2018-Jun-11 11:35N 35°54' E 014°52'0 0.2
2018-Jun-11 11:29N 35°54' E 014°52'0 0.1
2018-Jun-11 10:14N 35°54' E 014°53'0 0.1
2018-Jun-11 09:59N 35°54' E 014°53'0 0.0
2018-Jun-11 08:08N 35°54' E 014°53'0 0.0
2018-Jun-11 06:59N 35°54' E 014°53'0 0.0
2018-Jun-11 06:26N 35°54' E 014°53'  

Dump ship's entire track history